sensor_id;sensor_type;location;lat;lon;timestamp;temperature;humidity
7648;DHT22;3866;48.020;11.720;2023-08-30T00:00:48;12.50;99.90
7648;DHT22;3866;48.020;11.720;2023-08-30T00:03:16;12.40;99.90
7648;DHT22;3866;48.020;11.720;2023-08-30T00:05:43;12.40;99.90
7648;DHT22;3866;48.020;11.720;2023-08-30T00:08:10;12.50;99.90
7648;DHT22;3866;48.020;11.720;2023-08-30T00:10:39;12.50;99.90
7648;DHT22;3866;48.020;11.720;2023-08-30T00:13:08;12.40;99.90
7648;DHT22;3866;48.020;11.720;2023-08-30T00:15:35;12.40;99.90
7648;DHT22;3866;48.020;11.720;2023-08-30T00:18:02;12.40;99.90
7648;DHT22;3866;48.020;11.720;2023-08-30T00:20:30;12.40;99.90
7648;DHT22;3866;48.020;11.720;2023-08-30T00:22:57;12.40;99.90
7648;DHT22;3866;48.020;11.720;2023-08-30T00:25:24;12.40;99.90
7648;DHT22;3866;48.020;11.720;2023-08-30T00:27:51;12.40;99.90
7648;DHT22;3866;48.020;11.720;2023-08-30T00:30:18;12.40;99.90
7648;DHT22;3866;48.020;11.720;2023-08-30T00:32:45;12.50;99.90
7648;DHT22;3866;48.020;11.720;2023-08-30T00:35:12;12.50;99.90
7648;DHT22;3866;48.020;11.720;2023-08-30T00:37:40;12.50;99.90
7648;DHT22;3866;48.020;11.720;2023-08-30T00:40:08;12.50;99.90
7648;DHT22;3866;48.020;11.720;2023-08-30T00:42:34;12.50;99.90
7648;DHT22;3866;48.020;11.720;2023-08-30T00:45:01;12.50;99.90
7648;DHT22;3866;48.020;11.720;2023-08-30T00:47:28;12.50;99.90
7648;DHT22;3866;48.020;11.720;2023-08-30T00:49:55;12.40;99.90
7648;DHT22;3866;48.020;11.720;2023-08-30T00:52:22;12.40;99.90
7648;DHT22;3866;48.020;11.720;2023-08-30T00:54:51;12.40;99.90
7648;DHT22;3866;48.020;11.720;2023-08-30T00:57:18;12.40;99.90
7648;DHT22;3866;48.020;11.720;2023-08-30T00:59:44;12.40;99.90
7648;DHT22;3866;48.020;11.720;2023-08-30T01:02:11;12.50;99.90
7648;DHT22;3866;48.020;11.720;2023-08-30T01:04:38;12.40;99.90
7648;DHT22;3866;48.020;11.720;2023-08-30T01:07:05;12.50;99.90
7648;DHT22;3866;48.020;11.720;2023-08-30T01:09:32;12.60;99.90
7648;DHT22;3866;48.020;11.720;2023-08-30T01:12:07;12.50;99.90
7648;DHT22;3866;48.020;11.720;2023-08-30T01:14:42;12.40;99.90
7648;DHT22;3866;48.020;11.720;2023-08-30T01:17:11;12.40;99.90
7648;DHT22;3866;48.020;11.720;2023-08-30T01:19:46;12.40;99.90
7648;DHT22;3866;48.020;11.720;2023-08-30T01:22:17;12.60;99.90
7648;DHT22;3866;48.020;11.720;2023-08-30T01:24:55;12.80;99.90
7648;DHT22;3866;48.020;11.720;2023-08-30T01:27:26;12.60;99.90
7648;DHT22;3866;48.020;11.720;2023-08-30T01:29:57;12.50;99.90
7648;DHT22;3866;48.020;11.720;2023-08-30T01:32:25;12.50;99.90
7648;DHT22;3866;48.020;11.720;2023-08-30T01:34:55;12.60;99.90
7648;DHT22;3866;48.020;11.720;2023-08-30T01:37:22;12.50;99.90
7648;DHT22;3866;48.020;11.720;2023-08-30T01:39:52;12.50;99.90
7648;DHT22;3866;48.020;11.720;2023-08-30T01:42:19;12.60;99.90
7648;DHT22;3866;48.020;11.720;2023-08-30T01:44:49;12.60;99.90
7648;DHT22;3866;48.020;11.720;2023-08-30T01:47:21;12.60;99.90
7648;DHT22;3866;48.020;11.720;2023-08-30T01:49:49;12.60;99.90
7648;DHT22;3866;48.020;11.720;2023-08-30T01:52:16;12.60;99.90
7648;DHT22;3866;48.020;11.720;2023-08-30T01:54:45;12.70;99.90
7648;DHT22;3866;48.020;11.720;2023-08-30T01:57:13;12.70;99.90
7648;DHT22;3866;48.020;11.720;2023-08-30T01:59:40;12.70;99.90
7648;DHT22;3866;48.020;11.720;2023-08-30T02:02:08;12.70;99.90
7648;DHT22;3866;48.020;11.720;2023-08-30T02:04:35;12.60;99.90
7648;DHT22;3866;48.020;11.720;2023-08-30T02:07:03;12.60;99.90
7648;DHT22;3866;48.020;11.720;2023-08-30T02:09:36;12.70;99.90
7648;DHT22;3866;48.020;11.720;2023-08-30T02:12:12;12.60;99.90
7648;DHT22;3866;48.020;11.720;2023-08-30T02:14:41;12.60;99.90
7648;DHT22;3866;48.020;11.720;2023-08-30T02:17:12;12.70;99.90
7648;DHT22;3866;48.020;11.720;2023-08-30T02:19:40;12.60;99.90
7648;DHT22;3866;48.020;11.720;2023-08-30T02:22:07;12.60;99.90
7648;DHT22;3866;48.020;11.720;2023-08-30T02:24:34;12.60;99.90
7648;DHT22;3866;48.020;11.720;2023-08-30T02:27:01;12.50;99.90
7648;DHT22;3866;48.020;11.720;2023-08-30T02:29:28;12.50;99.90
7648;DHT22;3866;48.020;11.720;2023-08-30T02:31:55;12.50;99.90
7648;DHT22;3866;48.020;11.720;2023-08-30T02:34:23;12.40;99.90
7648;DHT22;3866;48.020;11.720;2023-08-30T02:36:50;12.50;99.90
7648;DHT22;3866;48.020;11.720;2023-08-30T02:39:17;12.50;99.90
7648;DHT22;3866;48.020;11.720;2023-08-30T02:41:45;12.40;99.90
7648;DHT22;3866;48.020;11.720;2023-08-30T02:44:12;12.50;99.90
7648;DHT22;3866;48.020;11.720;2023-08-30T02:46:38;12.40;99.90
7648;DHT22;3866;48.020;11.720;2023-08-30T02:49:07;12.40;99.90
7648;DHT22;3866;48.020;11.720;2023-08-30T02:51:36;12.50;99.90
7648;DHT22;3866;48.020;11.720;2023-08-30T02:54:03;12.50;99.90
7648;DHT22;3866;48.020;11.720;2023-08-30T02:56:31;12.60;99.90
7648;DHT22;3866;48.020;11.720;2023-08-30T02:58:58;12.60;99.90
7648;DHT22;3866;48.020;11.720;2023-08-30T03:01:25;12.70;99.90
7648;DHT22;3866;48.020;11.720;2023-08-30T03:03:52;12.60;99.90
7648;DHT22;3866;48.020;11.720;2023-08-30T03:06:19;12.60;99.90
7648;DHT22;3866;48.020;11.720;2023-08-30T03:08:47;12.50;99.90
7648;DHT22;3866;48.020;11.720;2023-08-30T03:11:14;12.50;99.90
7648;DHT22;3866;48.020;11.720;2023-08-30T03:13:41;12.40;99.90
7648;DHT22;3866;48.020;11.720;2023-08-30T03:16:11;12.40;99.90
7648;DHT22;3866;48.020;11.720;2023-08-30T03:18:38;12.50;99.90
7648;DHT22;3866;48.020;11.720;2023-08-30T03:21:05;12.40;99.90
7648;DHT22;3866;48.020;11.720;2023-08-30T03:23:32;12.50;99.90
7648;DHT22;3866;48.020;11.720;2023-08-30T03:26:07;12.50;99.90
7648;DHT22;3866;48.020;11.720;2023-08-30T03:28:34;12.50;99.90
7648;DHT22;3866;48.020;11.720;2023-08-30T03:31:01;12.40;99.90
7648;DHT22;3866;48.020;11.720;2023-08-30T03:33:28;12.30;99.90
7648;DHT22;3866;48.020;11.720;2023-08-30T03:35:58;12.40;99.90
7648;DHT22;3866;48.020;11.720;2023-08-30T03:38:25;12.40;99.90
7648;DHT22;3866;48.020;11.720;2023-08-30T03:40:53;12.40;99.90
7648;DHT22;3866;48.020;11.720;2023-08-30T03:43:21;12.40;99.90
7648;DHT22;3866;48.020;11.720;2023-08-30T03:45:48;12.50;99.90
7648;DHT22;3866;48.020;11.720;2023-08-30T03:48:15;12.30;99.90
7648;DHT22;3866;48.020;11.720;2023-08-30T03:50:42;12.30;99.90
7648;DHT22;3866;48.020;11.720;2023-08-30T03:53:09;12.20;99.90
7648;DHT22;3866;48.020;11.720;2023-08-30T03:55:36;12.30;99.90
7648;DHT22;3866;48.020;11.720;2023-08-30T03:58:03;12.20;99.90
7648;DHT22;3866;48.020;11.720;2023-08-30T04:00:31;12.30;99.90
7648;DHT22;3866;48.020;11.720;2023-08-30T04:03:00;12.10;99.90
7648;DHT22;3866;48.020;11.720;2023-08-30T04:05:27;12.20;99.90
7648;DHT22;3866;48.020;11.720;2023-08-30T04:07:58;12.10;99.90
7648;DHT22;3866;48.020;11.720;2023-08-30T04:10:25;12.20;99.90
7648;DHT22;3866;48.020;11.720;2023-08-30T04:12:52;12.20;99.90
7648;DHT22;3866;48.020;11.720;2023-08-30T04:15:19;12.30;99.90
7648;DHT22;3866;48.020;11.720;2023-08-30T04:17:47;12.30;99.90
7648;DHT22;3866;48.020;11.720;2023-08-30T04:20:14;12.20;99.90
7648;DHT22;3866;48.020;11.720;2023-08-30T04:22:41;12.30;99.90
7648;DHT22;3866;48.020;11.720;2023-08-30T04:25:08;12.20;99.90
7648;DHT22;3866;48.020;11.720;2023-08-30T04:27:35;12.20;99.90
7648;DHT22;3866;48.020;11.720;2023-08-30T04:30:03;12.20;99.90
7648;DHT22;3866;48.020;11.720;2023-08-30T04:32:30;12.20;99.90
7648;DHT22;3866;48.020;11.720;2023-08-30T04:34:58;12.30;99.90
7648;DHT22;3866;48.020;11.720;2023-08-30T04:37:25;12.20;99.90
7648;DHT22;3866;48.020;11.720;2023-08-30T04:39:52;12.20;99.90
7648;DHT22;3866;48.020;11.720;2023-08-30T04:42:18;12.30;99.90
7648;DHT22;3866;48.020;11.720;2023-08-30T04:44:45;12.20;99.90
7648;DHT22;3866;48.020;11.720;2023-08-30T04:47:12;12.20;99.90
7648;DHT22;3866;48.020;11.720;2023-08-30T04:49:39;12.30;99.90
7648;DHT22;3866;48.020;11.720;2023-08-30T04:52:07;12.30;99.90
7648;DHT22;3866;48.020;11.720;2023-08-30T04:54:34;12.30;99.90
7648;DHT22;3866;48.020;11.720;2023-08-30T04:57:01;12.30;99.90
7648;DHT22;3866;48.020;11.720;2023-08-30T04:59:28;12.40;99.90
7648;DHT22;3866;48.020;11.720;2023-08-30T05:01:55;12.20;99.90
7648;DHT22;3866;48.020;11.720;2023-08-30T05:04:24;12.30;99.90
7648;DHT22;3866;48.020;11.720;2023-08-30T05:06:51;12.30;99.90
7648;DHT22;3866;48.020;11.720;2023-08-30T05:09:19;12.30;99.90
7648;DHT22;3866;48.020;11.720;2023-08-30T05:11:50;12.30;99.90
7648;DHT22;3866;48.020;11.720;2023-08-30T05:14:17;12.20;99.90
7648;DHT22;3866;48.020;11.720;2023-08-30T05:16:44;12.40;99.90
7648;DHT22;3866;48.020;11.720;2023-08-30T05:19:11;12.30;99.90
7648;DHT22;3866;48.020;11.720;2023-08-30T05:21:37;12.30;99.90
7648;DHT22;3866;48.020;11.720;2023-08-30T05:24:05;12.40;99.90
7648;DHT22;3866;48.020;11.720;2023-08-30T05:26:34;12.40;99.90
7648;DHT22;3866;48.020;11.720;2023-08-30T05:29:01;12.40;99.90
7648;DHT22;3866;48.020;11.720;2023-08-30T05:31:28;12.50;99.90
7648;DHT22;3866;48.020;11.720;2023-08-30T05:33:55;12.40;99.90
7648;DHT22;3866;48.020;11.720;2023-08-30T05:36:21;12.40;99.90
7648;DHT22;3866;48.020;11.720;2023-08-30T05:38:48;12.40;99.90
7648;DHT22;3866;48.020;11.720;2023-08-30T05:41:15;12.40;99.90
7648;DHT22;3866;48.020;11.720;2023-08-30T05:43:44;12.40;99.90
7648;DHT22;3866;48.020;11.720;2023-08-30T05:46:10;12.40;99.90
7648;DHT22;3866;48.020;11.720;2023-08-30T05:48:41;12.40;99.90
7648;DHT22;3866;48.020;11.720;2023-08-30T05:51:08;12.40;99.90
7648;DHT22;3866;48.020;11.720;2023-08-30T05:53:35;12.30;99.90
7648;DHT22;3866;48.020;11.720;2023-08-30T05:56:02;12.40;99.90
7648;DHT22;3866;48.020;11.720;2023-08-30T05:58:29;12.30;99.90
7648;DHT22;3866;48.020;11.720;2023-08-30T06:00:58;12.30;99.90
7648;DHT22;3866;48.020;11.720;2023-08-30T06:03:26;12.30;99.90
7648;DHT22;3866;48.020;11.720;2023-08-30T06:05:53;12.20;99.90
7648;DHT22;3866;48.020;11.720;2023-08-30T06:08:20;12.30;99.90
7648;DHT22;3866;48.020;11.720;2023-08-30T06:10:46;12.50;99.90
7648;DHT22;3866;48.020;11.720;2023-08-30T06:13:13;12.40;99.90
7648;DHT22;3866;48.020;11.720;2023-08-30T06:15:41;12.30;99.90
7648;DHT22;3866;48.020;11.720;2023-08-30T06:18:11;12.40;99.90
7648;DHT22;3866;48.020;11.720;2023-08-30T06:20:40;12.50;99.90
7648;DHT22;3866;48.020;11.720;2023-08-30T06:23:07;12.50;99.90
7648;DHT22;3866;48.020;11.720;2023-08-30T06:25:34;12.50;99.90
7648;DHT22;3866;48.020;11.720;2023-08-30T06:28:01;12.50;99.90
7648;DHT22;3866;48.020;11.720;2023-08-30T06:30:28;12.70;99.90
7648;DHT22;3866;48.020;11.720;2023-08-30T06:32:56;12.70;99.90
7648;DHT22;3866;48.020;11.720;2023-08-30T06:35:24;12.60;99.90
7648;DHT22;3866;48.020;11.720;2023-08-30T06:37:51;12.60;99.90
7648;DHT22;3866;48.020;11.720;2023-08-30T06:40:19;12.50;99.90
7648;DHT22;3866;48.020;11.720;2023-08-30T06:42:45;12.60;99.90
7648;DHT22;3866;48.020;11.720;2023-08-30T06:45:12;12.50;99.90
7648;DHT22;3866;48.020;11.720;2023-08-30T06:47:41;12.60;99.90
7648;DHT22;3866;48.020;11.720;2023-08-30T06:50:08;12.50;99.90
7648;DHT22;3866;48.020;11.720;2023-08-30T06:52:37;12.80;99.90
7648;DHT22;3866;48.020;11.720;2023-08-30T06:55:04;12.60;99.90
7648;DHT22;3866;48.020;11.720;2023-08-30T06:57:31;12.60;99.90
7648;DHT22;3866;48.020;11.720;2023-08-30T06:59:58;12.60;99.90
7648;DHT22;3866;48.020;11.720;2023-08-30T07:02:33;12.60;99.90
7648;DHT22;3866;48.020;11.720;2023-08-30T07:05:00;12.70;99.90
7648;DHT22;3866;48.020;11.720;2023-08-30T07:07:28;12.80;99.90
7648;DHT22;3866;48.020;11.720;2023-08-30T07:09:56;12.90;99.90
7648;DHT22;3866;48.020;11.720;2023-08-30T07:12:23;12.80;99.90
7648;DHT22;3866;48.020;11.720;2023-08-30T07:14:50;12.90;99.90
7648;DHT22;3866;48.020;11.720;2023-08-30T07:17:17;12.90;99.90
7648;DHT22;3866;48.020;11.720;2023-08-30T07:19:44;12.90;99.90
7648;DHT22;3866;48.020;11.720;2023-08-30T07:22:11;13.10;99.90
7648;DHT22;3866;48.020;11.720;2023-08-30T07:24:38;12.90;99.90
7648;DHT22;3866;48.020;11.720;2023-08-30T07:27:06;12.80;99.90
7648;DHT22;3866;48.020;11.720;2023-08-30T07:29:34;12.80;99.90
7648;DHT22;3866;48.020;11.720;2023-08-30T07:32:00;13.00;99.90
7648;DHT22;3866;48.020;11.720;2023-08-30T07:34:28;12.90;99.90
7648;DHT22;3866;48.020;11.720;2023-08-30T07:36:55;12.80;99.90
7648;DHT22;3866;48.020;11.720;2023-08-30T07:39:22;12.80;99.90
7648;DHT22;3866;48.020;11.720;2023-08-30T07:41:49;12.80;99.90
7648;DHT22;3866;48.020;11.720;2023-08-30T07:44:18;12.90;99.90
7648;DHT22;3866;48.020;11.720;2023-08-30T07:46:45;12.90;99.90
7648;DHT22;3866;48.020;11.720;2023-08-30T07:49:12;12.90;99.90
7648;DHT22;3866;48.020;11.720;2023-08-30T07:51:39;12.90;99.90
7648;DHT22;3866;48.020;11.720;2023-08-30T07:54:06;12.90;99.90
7648;DHT22;3866;48.020;11.720;2023-08-30T07:56:33;12.90;99.90
7648;DHT22;3866;48.020;11.720;2023-08-30T07:59:00;12.90;99.90
7648;DHT22;3866;48.020;11.720;2023-08-30T08:01:28;13.00;99.90
7648;DHT22;3866;48.020;11.720;2023-08-30T08:03:55;13.00;99.90
7648;DHT22;3866;48.020;11.720;2023-08-30T08:06:22;13.00;99.90
7648;DHT22;3866;48.020;11.720;2023-08-30T08:08:49;13.10;99.90
7648;DHT22;3866;48.020;11.720;2023-08-30T08:11:16;13.10;99.90
7648;DHT22;3866;48.020;11.720;2023-08-30T08:13:43;13.10;99.90
7648;DHT22;3866;48.020;11.720;2023-08-30T08:16:10;13.10;99.90
7648;DHT22;3866;48.020;11.720;2023-08-30T08:18:39;13.20;99.90
7648;DHT22;3866;48.020;11.720;2023-08-30T08:21:06;13.10;99.90
7648;DHT22;3866;48.020;11.720;2023-08-30T08:23:33;13.10;99.90
7648;DHT22;3866;48.020;11.720;2023-08-30T08:26:00;13.10;99.90
7648;DHT22;3866;48.020;11.720;2023-08-30T08:28:28;13.20;99.90
7648;DHT22;3866;48.020;11.720;2023-08-30T08:30:55;13.10;99.90
7648;DHT22;3866;48.020;11.720;2023-08-30T08:33:22;13.20;99.90
7648;DHT22;3866;48.020;11.720;2023-08-30T08:35:51;13.20;99.90
7648;DHT22;3866;48.020;11.720;2023-08-30T08:38:18;13.20;99.90
7648;DHT22;3866;48.020;11.720;2023-08-30T08:40:45;13.20;99.90
7648;DHT22;3866;48.020;11.720;2023-08-30T08:43:12;13.30;99.90
7648;DHT22;3866;48.020;11.720;2023-08-30T08:45:39;13.20;99.90
7648;DHT22;3866;48.020;11.720;2023-08-30T08:48:06;13.30;99.90
7648;DHT22;3866;48.020;11.720;2023-08-30T08:50:34;13.50;99.90
7648;DHT22;3866;48.020;11.720;2023-08-30T08:53:03;13.70;99.90
7648;DHT22;3866;48.020;11.720;2023-08-30T08:55:30;13.40;99.90
7648;DHT22;3866;48.020;11.720;2023-08-30T08:57:58;13.50;99.90
7648;DHT22;3866;48.020;11.720;2023-08-30T09:00:25;13.60;99.90
7648;DHT22;3866;48.020;11.720;2023-08-30T09:02:53;13.50;99.90
7648;DHT22;3866;48.020;11.720;2023-08-30T09:05:20;13.70;99.90
7648;DHT22;3866;48.020;11.720;2023-08-30T09:07:48;13.70;99.90
7648;DHT22;3866;48.020;11.720;2023-08-30T09:10:20;13.90;99.90
7648;DHT22;3866;48.020;11.720;2023-08-30T09:12:48;13.80;99.90
7648;DHT22;3866;48.020;11.720;2023-08-30T09:15:15;13.90;99.90
7648;DHT22;3866;48.020;11.720;2023-08-30T09:17:43;14.00;99.90
7648;DHT22;3866;48.020;11.720;2023-08-30T09:20:11;14.10;99.90
7648;DHT22;3866;48.020;11.720;2023-08-30T09:22:39;14.20;99.90
7648;DHT22;3866;48.020;11.720;2023-08-30T09:25:08;14.40;99.90
7648;DHT22;3866;48.020;11.720;2023-08-30T09:27:37;14.20;99.90
7648;DHT22;3866;48.020;11.720;2023-08-30T09:30:08;14.10;99.90
7648;DHT22;3866;48.020;11.720;2023-08-30T09:32:40;14.30;99.90
7648;DHT22;3866;48.020;11.720;2023-08-30T09:35:08;14.50;99.90
7648;DHT22;3866;48.020;11.720;2023-08-30T09:37:35;14.70;99.90
7648;DHT22;3866;48.020;11.720;2023-08-30T09:40:03;14.70;99.90
7648;DHT22;3866;48.020;11.720;2023-08-30T09:42:31;14.50;99.90
7648;DHT22;3866;48.020;11.720;2023-08-30T09:44:59;14.40;99.90
7648;DHT22;3866;48.020;11.720;2023-08-30T09:47:27;14.50;99.90
7648;DHT22;3866;48.020;11.720;2023-08-30T09:49:56;14.60;99.90
7648;DHT22;3866;48.020;11.720;2023-08-30T09:52:25;14.70;99.90
7648;DHT22;3866;48.020;11.720;2023-08-30T09:54:52;15.10;99.90
7648;DHT22;3866;48.020;11.720;2023-08-30T09:57:22;15.30;99.90
7648;DHT22;3866;48.020;11.720;2023-08-30T09:59:49;15.70;99.90
7648;DHT22;3866;48.020;11.720;2023-08-30T10:02:18;16.00;99.90
7648;DHT22;3866;48.020;11.720;2023-08-30T10:04:45;15.90;99.90
7648;DHT22;3866;48.020;11.720;2023-08-30T10:07:13;15.70;99.90
7648;DHT22;3866;48.020;11.720;2023-08-30T10:09:42;15.70;99.90
7648;DHT22;3866;48.020;11.720;2023-08-30T10:12:10;16.20;99.90
7648;DHT22;3866;48.020;11.720;2023-08-30T10:14:37;16.00;99.90
7648;DHT22;3866;48.020;11.720;2023-08-30T10:17:05;16.20;99.90
7648;DHT22;3866;48.020;11.720;2023-08-30T10:19:37;16.40;99.90
7648;DHT22;3866;48.020;11.720;2023-08-30T10:22:06;16.60;99.90
7648;DHT22;3866;48.020;11.720;2023-08-30T10:24:39;16.70;99.90
7648;DHT22;3866;48.020;11.720;2023-08-30T10:27:07;16.70;99.90
7648;DHT22;3866;48.020;11.720;2023-08-30T10:29:35;16.40;99.90
7648;DHT22;3866;48.020;11.720;2023-08-30T10:32:03;16.40;99.90
7648;DHT22;3866;48.020;11.720;2023-08-30T10:34:32;16.20;99.90
7648;DHT22;3866;48.020;11.720;2023-08-30T10:37:02;16.60;99.90
7648;DHT22;3866;48.020;11.720;2023-08-30T10:39:37;16.40;99.90
7648;DHT22;3866;48.020;11.720;2023-08-30T10:42:09;16.40;99.90
7648;DHT22;3866;48.020;11.720;2023-08-30T10:44:46;16.60;99.90
7648;DHT22;3866;48.020;11.720;2023-08-30T10:47:23;16.50;99.90
7648;DHT22;3866;48.020;11.720;2023-08-30T10:49:53;16.40;99.90
7648;DHT22;3866;48.020;11.720;2023-08-30T10:52:23;16.50;99.90
7648;DHT22;3866;48.020;11.720;2023-08-30T10:54:50;16.70;99.90
7648;DHT22;3866;48.020;11.720;2023-08-30T10:57:19;16.90;99.90
7648;DHT22;3866;48.020;11.720;2023-08-30T11:00:07;17.20;99.90
7648;DHT22;3866;48.020;11.720;2023-08-30T11:02:35;17.50;99.90
7648;DHT22;3866;48.020;11.720;2023-08-30T11:05:06;17.40;99.90
7648;DHT22;3866;48.020;11.720;2023-08-30T11:07:35;17.40;99.90
7648;DHT22;3866;48.020;11.720;2023-08-30T11:10:04;17.50;99.90
7648;DHT22;3866;48.020;11.720;2023-08-30T11:12:31;17.70;99.90
7648;DHT22;3866;48.020;11.720;2023-08-30T11:14:58;17.90;99.90
7648;DHT22;3866;48.020;11.720;2023-08-30T11:17:26;17.80;99.90
7648;DHT22;3866;48.020;11.720;2023-08-30T11:19:58;17.90;99.90
7648;DHT22;3866;48.020;11.720;2023-08-30T11:22:25;17.70;99.90
7648;DHT22;3866;48.020;11.720;2023-08-30T11:24:53;17.90;99.90
7648;DHT22;3866;48.020;11.720;2023-08-30T11:27:20;18.00;99.90
7648;DHT22;3866;48.020;11.720;2023-08-30T11:29:47;17.60;99.90
7648;DHT22;3866;48.020;11.720;2023-08-30T11:32:14;17.90;99.90
7648;DHT22;3866;48.020;11.720;2023-08-30T11:34:41;18.00;99.90
7648;DHT22;3866;48.020;11.720;2023-08-30T11:37:08;17.90;99.90
7648;DHT22;3866;48.020;11.720;2023-08-30T11:39:35;17.40;99.90
7648;DHT22;3866;48.020;11.720;2023-08-30T11:42:05;17.30;99.90
7648;DHT22;3866;48.020;11.720;2023-08-30T11:44:32;17.50;99.90
7648;DHT22;3866;48.020;11.720;2023-08-30T11:47:00;17.80;99.90
7648;DHT22;3866;48.020;11.720;2023-08-30T11:49:27;17.80;99.90
7648;DHT22;3866;48.020;11.720;2023-08-30T11:51:55;17.80;99.90
7648;DHT22;3866;48.020;11.720;2023-08-30T11:54:24;17.60;99.90
7648;DHT22;3866;48.020;11.720;2023-08-30T11:56:51;17.50;99.90
7648;DHT22;3866;48.020;11.720;2023-08-30T11:59:19;17.60;99.90
7648;DHT22;3866;48.020;11.720;2023-08-30T12:01:47;17.50;99.90
7648;DHT22;3866;48.020;11.720;2023-08-30T12:04:15;17.30;99.90
7648;DHT22;3866;48.020;11.720;2023-08-30T12:06:44;17.50;99.90
7648;DHT22;3866;48.020;11.720;2023-08-30T12:09:14;17.30;99.90
7648;DHT22;3866;48.020;11.720;2023-08-30T12:11:41;17.20;99.90
7648;DHT22;3866;48.020;11.720;2023-08-30T12:14:08;17.50;99.90
7648;DHT22;3866;48.020;11.720;2023-08-30T12:16:36;17.40;99.90
7648;DHT22;3866;48.020;11.720;2023-08-30T12:19:09;17.50;99.90
7648;DHT22;3866;48.020;11.720;2023-08-30T12:21:40;17.70;99.90
7648;DHT22;3866;48.020;11.720;2023-08-30T12:24:08;17.70;99.90
7648;DHT22;3866;48.020;11.720;2023-08-30T12:26:35;18.00;99.90
7648;DHT22;3866;48.020;11.720;2023-08-30T12:29:03;18.10;99.90
7648;DHT22;3866;48.020;11.720;2023-08-30T12:31:31;18.20;99.90
7648;DHT22;3866;48.020;11.720;2023-08-30T12:33:59;19.10;99.90
7648;DHT22;3866;48.020;11.720;2023-08-30T12:36:26;19.80;99.90
7648;DHT22;3866;48.020;11.720;2023-08-30T12:38:53;20.50;99.90
7648;DHT22;3866;48.020;11.720;2023-08-30T12:41:20;20.80;99.90
7648;DHT22;3866;48.020;11.720;2023-08-30T12:43:49;21.00;99.90
7648;DHT22;3866;48.020;11.720;2023-08-30T12:46:16;21.00;99.90
7648;DHT22;3866;48.020;11.720;2023-08-30T12:48:43;21.30;99.90
7648;DHT22;3866;48.020;11.720;2023-08-30T12:51:11;21.20;99.90
7648;DHT22;3866;48.020;11.720;2023-08-30T12:53:40;21.20;99.90
7648;DHT22;3866;48.020;11.720;2023-08-30T12:56:07;21.30;99.90
7648;DHT22;3866;48.020;11.720;2023-08-30T12:58:34;22.00;99.90
7648;DHT22;3866;48.020;11.720;2023-08-30T13:01:01;21.90;99.90
7648;DHT22;3866;48.020;11.720;2023-08-30T13:03:28;21.20;99.90
7648;DHT22;3866;48.020;11.720;2023-08-30T13:05:54;20.10;99.90
7648;DHT22;3866;48.020;11.720;2023-08-30T13:08:25;20.30;99.90
7648;DHT22;3866;48.020;11.720;2023-08-30T13:10:52;20.40;99.90
7648;DHT22;3866;48.020;11.720;2023-08-30T13:13:19;19.90;99.90
7648;DHT22;3866;48.020;11.720;2023-08-30T13:15:47;19.80;99.90
7648;DHT22;3866;48.020;11.720;2023-08-30T13:18:14;19.80;99.90
7648;DHT22;3866;48.020;11.720;2023-08-30T13:20:41;19.70;99.90
7648;DHT22;3866;48.020;11.720;2023-08-30T13:23:08;19.80;99.90
7648;DHT22;3866;48.020;11.720;2023-08-30T13:25:39;19.90;99.90
7648;DHT22;3866;48.020;11.720;2023-08-30T13:28:06;19.40;99.90
7648;DHT22;3866;48.020;11.720;2023-08-30T13:30:34;19.00;99.90
7648;DHT22;3866;48.020;11.720;2023-08-30T13:33:00;19.20;99.90
7648;DHT22;3866;48.020;11.720;2023-08-30T13:35:27;19.30;99.90
7648;DHT22;3866;48.020;11.720;2023-08-30T13:37:54;18.90;99.90
7648;DHT22;3866;48.020;11.720;2023-08-30T13:40:21;18.90;99.90
7648;DHT22;3866;48.020;11.720;2023-08-30T13:42:49;18.80;99.90
7648;DHT22;3866;48.020;11.720;2023-08-30T13:45:16;18.70;99.90
7648;DHT22;3866;48.020;11.720;2023-08-30T13:47:43;18.50;99.90
7648;DHT22;3866;48.020;11.720;2023-08-30T13:50:12;18.70;99.90
7648;DHT22;3866;48.020;11.720;2023-08-30T13:52:39;19.00;99.90
7648;DHT22;3866;48.020;11.720;2023-08-30T13:55:06;19.10;99.90
7648;DHT22;3866;48.020;11.720;2023-08-30T13:57:33;19.10;99.90
7648;DHT22;3866;48.020;11.720;2023-08-30T14:00:02;18.90;99.90
7648;DHT22;3866;48.020;11.720;2023-08-30T14:02:33;19.20;99.90
7648;DHT22;3866;48.020;11.720;2023-08-30T14:05:00;19.20;99.90
7648;DHT22;3866;48.020;11.720;2023-08-30T14:07:27;19.30;99.90
7648;DHT22;3866;48.020;11.720;2023-08-30T14:09:54;19.30;99.90
7648;DHT22;3866;48.020;11.720;2023-08-30T14:12:21;19.20;99.90
7648;DHT22;3866;48.020;11.720;2023-08-30T14:14:48;19.20;99.90
7648;DHT22;3866;48.020;11.720;2023-08-30T14:17:16;19.00;99.90
7648;DHT22;3866;48.020;11.720;2023-08-30T14:19:43;18.90;99.90
7648;DHT22;3866;48.020;11.720;2023-08-30T14:22:10;19.10;99.90
7648;DHT22;3866;48.020;11.720;2023-08-30T14:24:36;18.90;99.90
7648;DHT22;3866;48.020;11.720;2023-08-30T14:27:04;18.90;99.90
7648;DHT22;3866;48.020;11.720;2023-08-30T14:29:30;18.80;99.90
7648;DHT22;3866;48.020;11.720;2023-08-30T14:31:57;18.70;99.90
7648;DHT22;3866;48.020;11.720;2023-08-30T14:34:27;18.60;99.90
7648;DHT22;3866;48.020;11.720;2023-08-30T14:36:54;18.40;99.90
7648;DHT22;3866;48.020;11.720;2023-08-30T14:39:21;18.20;99.90
7648;DHT22;3866;48.020;11.720;2023-08-30T14:41:47;18.20;99.90
7648;DHT22;3866;48.020;11.720;2023-08-30T14:44:14;18.00;99.90
7648;DHT22;3866;48.020;11.720;2023-08-30T14:46:41;17.90;99.90
7648;DHT22;3866;48.020;11.720;2023-08-30T14:49:08;17.60;99.90
7648;DHT22;3866;48.020;11.720;2023-08-30T14:51:36;17.40;99.90
7648;DHT22;3866;48.020;11.720;2023-08-30T14:54:03;17.30;99.90
7648;DHT22;3866;48.020;11.720;2023-08-30T14:56:30;17.20;99.90
7648;DHT22;3866;48.020;11.720;2023-08-30T14:58:57;17.10;99.90
7648;DHT22;3866;48.020;11.720;2023-08-30T15:01:24;17.10;99.90
7648;DHT22;3866;48.020;11.720;2023-08-30T15:03:51;17.10;99.90
7648;DHT22;3866;48.020;11.720;2023-08-30T15:06:18;17.00;99.90
7648;DHT22;3866;48.020;11.720;2023-08-30T15:08:47;16.90;99.90
7648;DHT22;3866;48.020;11.720;2023-08-30T15:11:14;16.90;99.90
7648;DHT22;3866;48.020;11.720;2023-08-30T15:13:41;17.00;99.90
7648;DHT22;3866;48.020;11.720;2023-08-30T15:16:08;16.90;99.90
7648;DHT22;3866;48.020;11.720;2023-08-30T15:18:35;16.90;99.90
7648;DHT22;3866;48.020;11.720;2023-08-30T15:21:02;16.90;99.90
7648;DHT22;3866;48.020;11.720;2023-08-30T15:23:29;16.90;99.90
7648;DHT22;3866;48.020;11.720;2023-08-30T15:25:57;16.90;99.90
7648;DHT22;3866;48.020;11.720;2023-08-30T15:28:24;16.90;99.90
7648;DHT22;3866;48.020;11.720;2023-08-30T15:30:51;16.90;99.90
7648;DHT22;3866;48.020;11.720;2023-08-30T15:33:18;16.90;99.90
7648;DHT22;3866;48.020;11.720;2023-08-30T15:35:45;17.00;99.90
7648;DHT22;3866;48.020;11.720;2023-08-30T15:38:11;17.00;99.90
7648;DHT22;3866;48.020;11.720;2023-08-30T15:40:39;17.10;99.90
7648;DHT22;3866;48.020;11.720;2023-08-30T15:43:08;17.20;99.90
7648;DHT22;3866;48.020;11.720;2023-08-30T15:45:35;17.10;99.90
7648;DHT22;3866;48.020;11.720;2023-08-30T15:48:02;17.30;99.90